createdAt,value
2023-09-12T00:01:14.919Z,101113.83
2023-09-12T00:03:42.813Z,101114.17
2023-09-12T00:06:10.730Z,101111.45
2023-09-12T00:08:38.404Z,101114.92
2023-09-12T00:11:07.914Z,101113.73
2023-09-12T00:13:35.756Z,101112.02
2023-09-12T00:16:03.431Z,101106.71
2023-09-12T00:18:31.506Z,101106.55
2023-09-12T00:21:02.171Z,101111.38
2023-09-12T00:23:30.087Z,101111.73
2023-09-12T00:25:58.668Z,101110.02
2023-09-12T00:28:26.534Z,101113.48
2023-09-12T00:30:54.298Z,101114.53
2023-09-12T00:33:22.347Z,101114.52
2023-09-12T00:35:50.129Z,101112.80
2023-09-12T00:38:17.802Z,101115.95
2023-09-12T00:40:45.460Z,101114.73
2023-09-12T00:43:13.332Z,101113.53
2023-09-12T00:45:41.336Z,101109.06
2023-09-12T00:48:10.653Z,101106.48
2023-09-12T00:50:38.359Z,101110.28
2023-09-12T00:53:06.121Z,101114.59
2023-09-12T00:55:34.301Z,101114.95
2023-09-12T00:58:02.877Z,101118.93
2023-09-12T01:00:30.529Z,101117.55
2023-09-12T01:02:59.277Z,101116.88
2023-09-12T01:05:27.285Z,101113.96
2023-09-12T01:07:55.257Z,101113.98
2023-09-12T01:10:22.824Z,101113.63
2023-09-12T01:12:50.478Z,101115.52
2023-09-12T01:15:18.371Z,101117.77
2023-09-12T01:17:46.653Z,101119.33
2023-09-12T01:20:26.540Z,101120.17
2023-09-12T01:22:56.069Z,101125.35
2023-09-12T01:25:41.450Z,101125.18
2023-09-12T01:28:10.533Z,101124.15
2023-09-12T01:30:38.229Z,101127.59
2023-09-12T01:33:06.192Z,101126.21
2023-09-12T01:35:33.931Z,101129.14
2023-09-12T01:38:01.600Z,101125.02
2023-09-12T01:40:52.226Z,101125.36
2023-09-12T01:43:23.145Z,101122.10
2023-09-12T01:45:55.249Z,101121.76
2023-09-12T01:48:25.018Z,101122.95
2023-09-12T01:50:52.667Z,101121.23
2023-09-12T01:53:20.513Z,101118.48
2023-09-12T01:57:15.314Z,101125.02
2023-09-12T01:59:43.613Z,101124.15
2023-09-12T02:02:11.592Z,101120.02
2023-09-12T02:04:39.259Z,101119.34
2023-09-12T02:07:07.525Z,101118.81
2023-09-12T02:09:35.450Z,101114.36
2023-09-12T02:12:03.449Z,101115.38
2023-09-12T02:14:31.120Z,101118.48
2023-09-12T02:16:59.464Z,101118.83
2023-09-12T02:19:28.107Z,101119.84
2023-09-12T02:21:56.664Z,101121.52
2023-09-12T02:24:26.191Z,101121.18
2023-09-12T02:26:53.930Z,101122.73
2023-09-12T02:29:22.000Z,101120.31
2023-09-12T02:31:49.713Z,101119.98
2023-09-12T02:34:17.729Z,101120.50
2023-09-12T02:36:45.404Z,101119.80
2023-09-12T02:39:13.402Z,101121.52
2023-09-12T02:41:41.124Z,101113.79
2023-09-12T02:44:08.682Z,101114.31
2023-09-12T02:46:37.998Z,101113.11
2023-09-12T02:49:05.652Z,101116.23
2023-09-12T02:51:33.342Z,101117.62
2023-09-12T02:54:01.072Z,101116.77
2023-09-12T02:56:28.832Z,101115.72
2023-09-12T02:58:56.489Z,101114.88
2023-09-12T03:01:24.183Z,101120.02
2023-09-12T03:03:52.138Z,101120.54
2023-09-12T03:06:19.989Z,101123.12
2023-09-12T03:08:48.793Z,101125.35
2023-09-12T03:11:16.540Z,101124.11
2023-09-12T03:13:44.139Z,101125.30
2023-09-12T03:16:12.606Z,101128.58
2023-09-12T03:18:40.689Z,101128.75
2023-09-12T03:21:09.203Z,101130.30
2023-09-12T03:23:36.894Z,101123.75
2023-09-12T03:26:05.169Z,101125.65
2023-09-12T03:28:33.242Z,101128.77
2023-09-12T03:31:15.687Z,101130.64
2023-09-12T03:33:44.363Z,101132.19
2023-09-12T03:36:12.430Z,101130.12
2023-09-12T03:38:40.457Z,101129.77
2023-09-12T03:41:08.749Z,101131.16
2023-09-12T03:43:37.641Z,101132.52
2023-09-12T03:46:05.740Z,101137.35
2023-09-12T03:48:34.015Z,101141.83
2023-09-12T03:51:02.373Z,101140.97
2023-09-12T03:53:30.334Z,101144.39
2023-09-12T03:55:59.121Z,101145.44
2023-09-12T03:58:26.993Z,101148.18
2023-09-12T04:00:54.751Z,101146.68
2023-09-12T04:03:22.723Z,101147.89
2023-09-12T04:05:52.837Z,101152.38
2023-09-12T04:08:20.599Z,101148.42
2023-09-12T04:10:48.273Z,101153.41
2023-09-12T04:13:16.147Z,101157.02
2023-09-12T04:15:43.876Z,101159.27
2023-09-12T04:18:11.872Z,101160.98
2023-09-12T04:20:39.724Z,101161.30
2023-09-12T04:23:07.590Z,101162.13
2023-09-12T04:25:35.251Z,101161.05
2023-09-12T04:28:03.631Z,101161.15
2023-09-12T04:30:32.771Z,101154.69
2023-09-12T04:33:00.544Z,101153.01
2023-09-12T04:35:28.259Z,101153.20
2023-09-12T04:37:56.729Z,101147.50
2023-09-12T04:40:24.410Z,101150.02
2023-09-12T04:42:52.260Z,101146.64
2023-09-12T04:45:19.933Z,101147.54
2023-09-12T04:47:48.131Z,101150.30
2023-09-12T04:50:15.959Z,101148.80
2023-09-12T04:52:43.827Z,101152.52
2023-09-12T04:55:11.490Z,101150.77
2023-09-12T04:57:41.350Z,101155.98
2023-09-12T05:00:12.298Z,101155.31
2023-09-12T05:02:40.322Z,101153.80
2023-09-12T05:05:08.376Z,101156.48
2023-09-12T05:07:36.274Z,101160.23
2023-09-12T05:10:05.125Z,101160.87
2023-09-12T05:12:33.081Z,101160.89
2023-09-12T05:15:00.974Z,101163.47
2023-09-12T05:17:29.035Z,101163.65
2023-09-12T05:19:58.079Z,101166.20
2023-09-12T05:22:25.692Z,101171.66
2023-09-12T05:24:53.353Z,101174.88
2023-09-12T05:27:21.124Z,101177.63
2023-09-12T05:29:48.981Z,101183.49
2023-09-12T05:32:18.028Z,101192.48
2023-09-12T05:34:46.659Z,101197.59
2023-09-12T05:37:14.944Z,101208.26
2023-09-12T05:39:43.200Z,101223.03
2023-09-12T05:42:11.117Z,101232.27
2023-09-12T05:44:38.839Z,101245.13
2023-09-12T05:47:08.352Z,101256.63
2023-09-12T05:49:36.124Z,101277.61
2023-09-12T05:52:05.384Z,101291.30
2023-09-12T05:54:33.437Z,101307.25
2023-09-12T05:57:01.447Z,101321.30
2023-09-12T05:59:29.111Z,101338.61
2023-09-12T06:01:56.881Z,101356.64
2023-09-12T06:04:25.656Z,101380.73
2023-09-12T06:06:53.421Z,101404.11
2023-09-12T06:09:21.204Z,101429.80
2023-09-12T06:11:49.161Z,101463.11
2023-09-12T06:14:16.816Z,101495.54
2023-09-12T06:16:44.617Z,101528.70
2023-09-12T06:19:12.343Z,101560.30
2023-09-12T06:21:40.024Z,101590.86
2023-09-12T06:24:15.249Z,101617.38
2023-09-12T06:26:43.012Z,101643.05
2023-09-12T06:29:10.778Z,101662.66
2023-09-12T06:31:38.533Z,101681.02
2023-09-12T06:34:06.304Z,101685.50
2023-09-12T06:36:34.128Z,101679.23
2023-09-12T06:39:02.355Z,101661.61
2023-09-12T06:41:30.032Z,101634.76
2023-09-12T06:43:59.787Z,101609.13
2023-09-12T06:46:28.790Z,101577.23
2023-09-12T06:48:57.548Z,101532.02
2023-09-12T06:51:29.503Z,101495.27
2023-09-12T06:53:58.858Z,101470.32
2023-09-12T06:56:26.513Z,101381.48
2023-09-12T06:58:56.326Z,101231.96
2023-09-12T07:01:24.125Z,101102.40
2023-09-12T07:03:55.510Z,100974.54
2023-09-12T07:06:24.142Z,100882.95
2023-09-12T07:08:52.814Z,100855.19
2023-09-12T07:11:20.978Z,100803.76
2023-09-12T07:13:49.655Z,100744.70
2023-09-12T07:16:18.924Z,100697.74
2023-09-12T07:18:47.815Z,100643.10
2023-09-12T07:21:15.641Z,100598.48
2023-09-12T07:23:43.459Z,100601.73
2023-09-12T07:26:15.156Z,100634.83
2023-09-12T07:28:42.806Z,100659.46
2023-09-12T07:31:10.666Z,100685.88
2023-09-12T07:33:38.521Z,100719.17
2023-09-12T07:37:48.219Z,100780.62
2023-09-12T07:40:15.676Z,100815.20
2023-09-12T07:42:42.434Z,100858.78
2023-09-12T07:45:10.834Z,100892.70
2023-09-12T07:47:37.949Z,100896.52
2023-09-12T07:50:07.183Z,100920.02
2023-09-12T07:52:35.115Z,100955.52
2023-09-12T07:55:03.179Z,100976.95
2023-09-12T07:57:30.679Z,100985.14
2023-09-12T07:59:57.783Z,100998.01
2023-09-12T08:02:24.628Z,100995.77
2023-09-12T08:04:51.522Z,101007.75
2023-09-12T08:07:18.524Z,100959.64
2023-09-12T08:09:56.727Z,100982.21
2023-09-12T08:12:24.834Z,101042.13
2023-09-12T08:14:52.451Z,101037.09
2023-09-12T08:17:20.315Z,101033.59
2023-09-12T08:19:47.260Z,100953.77
2023-09-12T08:22:14.208Z,100964.49
2023-09-12T08:24:41.247Z,100999.29
2023-09-12T08:27:08.406Z,101023.81
2023-09-12T08:29:35.439Z,101013.95
2023-09-12T08:32:02.546Z,100949.77
2023-09-12T08:34:29.745Z,100831.77
2023-09-12T08:36:57.214Z,100852.23
2023-09-12T08:39:25.502Z,100748.58
2023-09-12T08:41:53.700Z,100780.64
2023-09-12T08:44:21.385Z,100824.42
2023-09-12T08:46:48.571Z,100733.59
2023-09-12T08:49:16.148Z,100645.52
2023-09-12T08:51:43.235Z,100728.01
2023-09-12T08:54:10.320Z,100661.36
2023-09-12T08:56:39.952Z,100495.06
2023-09-12T08:59:06.769Z,100447.43
2023-09-12T09:01:33.967Z,100498.55
2023-09-12T09:04:03.227Z,100635.49
2023-09-12T09:06:33.615Z,100661.31
2023-09-12T09:09:01.003Z,100651.55
2023-09-12T09:11:28.607Z,100587.38
2023-09-12T09:13:56.885Z,100532.69
2023-09-12T09:16:23.793Z,100356.73
2023-09-12T09:19:01.347Z,100189.92
2023-09-12T09:21:31.392Z,100025.16
2023-09-12T09:24:05.801Z,99866.13
2023-09-12T09:26:45.464Z,100024.96
2023-09-12T09:29:15.979Z,100053.16
2023-09-12T09:31:43.897Z,100120.95
2023-09-12T09:34:14.335Z,100223.39
2023-09-12T09:36:43.804Z,100266.30
2023-09-12T09:39:11.565Z,100113.94
2023-09-12T09:41:38.794Z,100127.33
2023-09-12T09:44:09.216Z,100287.80
2023-09-12T09:46:39.176Z,100208.98
2023-09-12T09:49:07.731Z,100274.73
2023-09-12T09:51:46.062Z,100170.49
2023-09-12T09:54:14.210Z,100117.24
2023-09-12T09:56:48.096Z,100212.75
2023-09-12T09:59:21.423Z,100306.48
2023-09-12T10:01:49.832Z,100249.75
2023-09-12T10:04:16.892Z,100314.35
2023-09-12T10:06:45.085Z,100167.98
2023-09-12T10:09:13.364Z,99935.45
2023-09-12T10:11:42.392Z,99802.41
2023-09-12T10:14:09.215Z,99716.99
2023-09-12T10:16:39.671Z,99872.38
2023-09-12T10:19:25.576Z,99801.36
2023-09-12T10:21:59.438Z,99867.16
2023-09-12T10:24:26.715Z,99709.68
2023-09-12T10:26:53.724Z,99829.85
2023-09-12T10:29:20.562Z,99724.98
2023-09-12T10:31:47.944Z,99690.53
2023-09-12T10:34:17.262Z,99688.48
2023-09-12T10:36:46.184Z,99864.64
2023-09-12T10:39:13.358Z,99734.38
2023-09-12T10:41:40.837Z,99734.63
2023-09-12T10:44:11.553Z,99775.41
2023-09-12T10:46:41.495Z,99747.59
2023-09-12T10:49:11.986Z,99767.96
2023-09-12T10:51:42.875Z,99655.23
2023-09-12T10:54:13.865Z,99624.08
2023-09-12T10:56:40.912Z,99687.21
2023-09-12T10:59:07.770Z,99639.88
2023-09-12T11:01:35.511Z,99782.90
2023-09-12T11:04:31.482Z,99582.16
2023-09-12T11:06:59.171Z,99620.73
2023-09-12T11:09:29.038Z,99680.83
2023-09-12T11:11:58.596Z,99694.34
2023-09-12T11:14:26.911Z,99656.95
2023-09-12T11:17:09.190Z,99431.40
2023-09-12T11:19:49.355Z,99395.77
2023-09-12T11:22:27.504Z,99475.58
2023-09-12T11:24:56.844Z,99290.62
2023-09-12T11:27:25.882Z,99245.09
2023-09-12T11:29:52.803Z,99156.74
2023-09-12T11:32:28.768Z,98974.91
2023-09-12T11:34:55.805Z,99057.30
2023-09-12T11:37:26.846Z,99094.23
2023-09-12T11:39:54.894Z,99054.59
2023-09-12T11:42:23.634Z,99047.23
2023-09-12T11:44:50.751Z,99228.13
2023-09-12T11:47:17.901Z,99281.17
2023-09-12T11:49:45.153Z,99358.30
2023-09-12T11:52:20.282Z,99388.36
2023-09-12T11:54:47.242Z,99355.08
2023-09-12T11:57:15.404Z,99418.48
2023-09-12T11:59:47.378Z,99493.85
2023-09-12T12:02:15.028Z,99529.59
2023-09-12T12:04:42.358Z,99608.13
2023-09-12T12:07:09.699Z,99649.56
2023-09-12T12:09:36.676Z,99625.14
2023-09-12T12:12:13.752Z,99527.11
2023-09-12T12:14:41.737Z,99279.32
2023-09-12T12:17:12.067Z,99249.88
2023-09-12T12:19:39.567Z,99235.67
2023-09-12T12:22:07.225Z,99442.45
2023-09-12T12:24:45.982Z,99598.90
2023-09-12T12:27:16.024Z,99692.42
2023-09-12T12:29:44.491Z,99659.93
2023-09-12T12:32:11.794Z,99642.86
2023-09-12T12:35:35.323Z,99577.93
2023-09-12T12:37:31.066Z,99564.72
2023-09-12T12:39:59.079Z,99490.11
2023-09-12T12:42:47.484Z,99594.13
2023-09-12T12:45:20.649Z,99609.05
2023-09-12T12:47:49.834Z,99403.94
2023-09-12T12:50:20.046Z,99418.44
2023-09-12T12:52:48.526Z,99669.19
2023-09-12T12:55:17.512Z,99506.73
2023-09-12T12:57:45.002Z,99489.70
2023-09-12T13:00:16.018Z,99636.27
2023-09-12T13:02:43.797Z,99678.75
2023-09-12T13:05:30.389Z,99739.52
2023-09-12T13:07:57.335Z,99681.44
2023-09-12T13:10:24.880Z,99672.63
2023-09-12T13:12:51.761Z,99690.67
2023-09-12T13:15:19.388Z,99667.47
2023-09-12T13:17:46.247Z,99612.35
2023-09-12T13:20:13.070Z,99476.30
2023-09-12T13:22:40.505Z,99357.75
2023-09-12T13:25:08.294Z,99437.30
2023-09-12T13:27:35.394Z,99441.09
2023-09-12T13:30:04.136Z,99535.20
2023-09-12T13:32:31.102Z,99717.48
2023-09-12T13:34:58.016Z,99619.00
2023-09-12T13:37:25.317Z,99537.17
2023-09-12T13:39:52.254Z,99467.05
2023-09-12T13:42:20.295Z,99489.90
2023-09-12T13:44:48.354Z,99428.45
2023-09-12T13:47:22.107Z,99560.23
2023-09-12T13:49:49.814Z,99635.15
2023-09-12T13:52:16.864Z,99528.48
2023-09-12T13:54:44.273Z,99469.77
2023-09-12T13:57:11.168Z,99499.77
2023-09-12T13:59:45.235Z,99503.88
2023-09-12T14:02:13.723Z,99630.75
2023-09-12T14:04:41.488Z,99670.83
2023-09-12T14:07:09.587Z,99657.15
2023-09-12T14:09:36.954Z,99701.17
2023-09-12T14:12:10.036Z,99645.31
2023-09-12T14:14:39.540Z,99565.63
2023-09-12T14:17:07.497Z,99649.11
2023-09-12T14:19:35.861Z,99741.99
2023-09-12T14:22:04.279Z,99846.48
2023-09-12T14:24:32.654Z,99913.14
2023-09-12T14:27:01.304Z,99951.25
2023-09-12T14:29:30.825Z,99838.36
2023-09-12T14:32:00.357Z,99877.27
2023-09-12T14:34:28.313Z,99941.24
2023-09-12T14:36:55.996Z,99993.00
2023-09-12T14:39:23.550Z,100011.16
2023-09-12T14:41:52.613Z,100113.64
2023-09-12T14:44:19.556Z,100114.87
2023-09-12T14:46:46.645Z,100150.77
2023-09-12T14:49:14.091Z,100207.06
2023-09-12T14:51:41.121Z,100259.85
2023-09-12T14:54:08.152Z,100344.73
2023-09-12T14:56:35.218Z,100474.89
2023-09-12T14:59:03.794Z,100598.30
2023-09-12T15:01:31.022Z,100737.36
2023-09-12T15:03:58.256Z,100848.79
2023-09-12T15:06:25.770Z,100879.85
2023-09-12T15:08:53.194Z,100987.45
2023-09-12T15:11:20.147Z,101057.52
2023-09-12T15:13:47.517Z,101141.52
2023-09-12T15:16:15.130Z,101197.00
2023-09-12T15:18:42.858Z,101199.50
2023-09-12T15:21:09.863Z,101207.73
2023-09-12T15:23:38.139Z,101213.05
2023-09-12T15:26:05.196Z,101272.73
2023-09-12T15:28:32.237Z,101386.88
2023-09-12T15:31:02.503Z,101489.73
2023-09-12T15:33:30.528Z,101589.96
2023-09-12T15:35:57.883Z,101640.77
2023-09-12T15:38:24.834Z,101750.20
2023-09-12T15:40:52.584Z,101851.71
2023-09-12T15:43:24.383Z,101874.79
2023-09-12T15:45:53.714Z,101884.48
2023-09-12T15:48:20.846Z,101940.93
2023-09-12T15:50:48.353Z,102021.09
2023-09-12T15:53:15.911Z,102066.23
2023-09-12T15:55:43.274Z,102110.58
2023-09-12T15:58:10.604Z,102119.88
2023-09-12T16:00:38.345Z,102093.52
2023-09-12T16:03:05.603Z,101921.83
2023-09-12T16:05:33.515Z,101388.79
2023-09-12T16:08:00.353Z,101062.64
2023-09-12T16:10:28.208Z,100928.52
2023-09-12T16:12:55.224Z,100837.52
2023-09-12T16:15:22.305Z,100757.98
2023-09-12T16:17:49.238Z,100687.52
2023-09-12T16:20:16.189Z,100627.69
2023-09-12T16:22:43.551Z,100596.97
2023-09-12T16:25:10.815Z,100581.28
2023-09-12T16:27:38.004Z,100575.09
2023-09-12T16:30:08.291Z,100573.59
2023-09-12T16:32:37.000Z,100575.75
2023-09-12T16:35:05.222Z,100584.70
2023-09-12T16:37:33.091Z,100597.86
2023-09-12T16:40:01.414Z,100617.34
2023-09-12T16:42:30.998Z,100654.96
2023-09-12T16:45:00.071Z,100704.64
2023-09-12T16:47:30.410Z,100763.32
2023-09-12T16:49:57.538Z,100822.17
2023-09-12T16:52:24.594Z,100875.73
2023-09-12T16:54:51.471Z,100926.83
2023-09-12T16:57:18.302Z,100966.05
2023-09-12T16:59:45.829Z,100982.91
2023-09-12T17:02:13.144Z,100998.58
2023-09-12T17:04:41.383Z,101033.20
2023-09-12T17:07:10.896Z,101083.10
2023-09-12T17:09:38.676Z,101132.83
2023-09-12T17:12:07.206Z,101185.30
2023-09-12T17:14:34.251Z,101250.63
2023-09-12T17:17:01.427Z,101306.34
2023-09-12T17:19:29.782Z,101363.89
2023-09-12T17:21:56.877Z,101413.40
2023-09-12T17:24:24.819Z,101444.48
2023-09-12T17:26:51.764Z,101466.54
2023-09-12T17:29:18.992Z,101485.42
2023-09-12T17:31:45.979Z,101504.63
2023-09-12T17:34:14.431Z,101517.44
2023-09-12T17:36:41.437Z,101525.02
2023-09-12T17:39:10.039Z,101531.22
2023-09-12T17:41:37.186Z,101536.21
2023-09-12T17:44:06.079Z,101544.46
2023-09-12T17:46:34.189Z,101555.83
2023-09-12T17:49:01.946Z,101562.35
2023-09-12T17:51:31.444Z,101565.05
2023-09-12T17:53:58.460Z,101564.48
2023-09-12T17:56:25.514Z,101568.92
2023-09-12T17:58:52.351Z,101575.92
2023-09-12T18:01:19.800Z,101577.05
2023-09-12T18:03:47.151Z,101578.33
2023-09-12T18:06:15.025Z,101586.39
2023-09-12T18:08:41.868Z,101589.04
2023-09-12T18:11:11.993Z,101593.93
2023-09-12T18:13:42.492Z,101596.27
2023-09-12T18:16:10.154Z,101593.42
2023-09-12T18:18:38.157Z,101592.47
2023-09-12T18:21:05.095Z,101590.50
2023-09-12T18:23:32.038Z,101589.15
2023-09-12T18:26:00.051Z,101584.17
2023-09-12T18:28:44.462Z,101580.40
2023-09-12T18:31:13.141Z,101571.77
2023-09-12T18:33:40.672Z,101568.34
2023-09-12T18:36:09.289Z,101562.48
2023-09-12T18:38:37.252Z,101557.16
2023-09-12T18:41:04.610Z,101549.07
2023-09-12T18:43:32.539Z,101543.20
2023-09-12T18:46:00.608Z,101541.34
2023-09-12T18:48:27.957Z,101533.77
2023-09-12T18:50:56.294Z,101531.41
2023-09-12T18:53:23.270Z,101524.89
2023-09-12T18:55:50.487Z,101523.03
2023-09-12T18:58:17.310Z,101514.95
2023-09-12T19:00:44.899Z,101516.56
2023-09-12T19:03:14.768Z,101517.50
2023-09-12T19:05:43.430Z,101512.36
2023-09-12T19:08:11.646Z,101506.85
2023-09-12T19:10:39.311Z,101495.82
2023-09-12T19:13:08.638Z,101493.95
2023-09-12T19:15:38.805Z,101491.21
2023-09-12T19:18:07.549Z,101484.66
2023-09-12T19:20:34.972Z,101479.81
2023-09-12T19:23:03.658Z,101463.00
2023-09-12T19:25:30.610Z,101451.75
2023-09-12T19:27:57.614Z,101436.17
2023-09-12T19:30:26.358Z,101426.11
2023-09-12T19:32:53.747Z,101416.23
2023-09-12T19:35:20.835Z,101406.86
2023-09-12T19:37:48.087Z,101394.40
2023-09-12T19:40:16.684Z,101382.27
2023-09-12T19:42:43.991Z,101372.23
2023-09-12T19:45:11.268Z,101367.05
2023-09-12T19:47:50.266Z,101355.27
2023-09-12T19:50:25.127Z,101342.31
2023-09-12T19:55:13.051Z,101370.74
2023-09-12T19:57:46.652Z,101343.45
2023-09-12T20:00:15.535Z,101339.48
2023-09-12T20:02:45.310Z,101335.15
2023-09-12T20:05:13.443Z,101328.59
2023-09-12T20:07:41.209Z,101327.05
2023-09-12T20:10:09.347Z,101323.96
2023-09-12T20:12:37.070Z,101325.20
2023-09-12T20:15:05.621Z,101321.09
2023-09-12T20:17:33.227Z,101320.40
2023-09-12T20:20:01.458Z,101313.15
2023-09-12T20:22:31.069Z,101308.46
2023-09-12T20:24:58.760Z,101301.21
2023-09-12T20:27:27.023Z,101297.23
2023-09-12T20:29:54.676Z,101289.75
2023-09-12T20:32:22.329Z,101281.23
2023-09-12T20:34:49.939Z,101273.77
2023-09-12T20:37:18.592Z,101267.73
2023-09-12T20:39:48.045Z,101257.66
2023-09-12T20:42:15.743Z,101253.83
2023-09-12T20:44:43.394Z,101249.15
2023-09-12T20:47:10.951Z,101247.06
2023-09-12T20:49:39.336Z,101243.02
2023-09-12T20:52:07.095Z,101237.50
2023-09-12T20:54:37.806Z,101234.59
2023-09-12T20:57:06.055Z,101235.34
2023-09-12T20:59:33.667Z,101233.63
2023-09-12T21:02:01.440Z,101233.20
2023-09-12T21:04:29.430Z,101232.96
2023-09-12T21:06:57.099Z,101231.46
2023-09-12T21:09:24.919Z,101232.70
2023-09-12T21:11:52.583Z,101232.42
2023-09-12T21:14:20.554Z,101230.46
2023-09-12T21:16:48.536Z,101234.73
2023-09-12T21:19:16.386Z,101236.74
2023-09-12T21:21:44.405Z,101236.17
2023-09-12T21:24:12.217Z,101236.61
2023-09-12T21:26:39.889Z,101232.73
2023-09-12T21:29:07.437Z,101232.11
2023-09-12T21:31:35.366Z,101231.80
2023-09-12T21:34:03.952Z,101230.80
2023-09-12T21:36:32.778Z,101232.40
2023-09-12T21:39:02.216Z,101232.05
2023-09-12T21:41:30.252Z,101231.04
2023-09-12T21:43:57.916Z,101229.14
2023-09-12T21:46:25.646Z,101223.60
2023-09-12T21:48:53.597Z,101218.59
2023-09-12T21:51:21.816Z,101217.69
2023-09-12T21:53:50.907Z,101213.50
2023-09-12T21:56:18.467Z,101213.11
2023-09-12T21:58:46.540Z,101211.16
2023-09-12T22:01:14.254Z,101207.21
2023-09-12T22:03:42.987Z,101206.41
2023-09-12T22:06:12.840Z,101207.67
2023-09-12T22:08:41.383Z,101207.39
2023-09-12T22:11:09.148Z,101211.45
2023-09-12T22:13:36.805Z,101223.78
2023-09-12T22:16:05.517Z,101225.60
2023-09-12T22:18:33.254Z,101223.05
2023-09-12T22:21:01.025Z,101221.35
2023-09-12T22:23:28.697Z,101221.58
2023-09-12T22:25:58.078Z,101219.70
2023-09-12T22:28:26.661Z,101218.69
2023-09-12T22:30:55.015Z,101218.73
2023-09-12T22:33:22.833Z,101217.73
2023-09-12T22:36:08.303Z,101211.03
2023-09-12T22:38:43.010Z,101210.38
2023-09-12T22:41:11.388Z,101211.25
2023-09-12T22:43:39.122Z,101210.56
2023-09-12T22:46:08.771Z,101211.08
2023-09-12T22:48:36.677Z,101204.21
2023-09-12T22:51:05.207Z,101204.05
2023-09-12T22:53:32.867Z,101205.77
2023-09-12T22:56:01.040Z,101201.83
2023-09-12T22:58:28.703Z,101198.20
2023-09-12T23:00:56.983Z,101197.84
2023-09-12T23:03:25.152Z,101195.57
2023-09-12T23:05:53.527Z,101191.58
2023-09-12T23:08:21.191Z,101189.85
2023-09-12T23:10:49.094Z,101186.21
2023-09-12T23:13:17.240Z,101182.25
2023-09-12T23:15:44.955Z,101177.42
2023-09-12T23:18:14.432Z,101176.23
2023-09-12T23:20:42.503Z,101174.52
2023-09-12T23:23:09.955Z,101176.09
2023-09-12T23:25:38.049Z,101179.92
2023-09-12T23:28:07.801Z,101175.84
2023-09-12T23:30:35.418Z,101182.60
2023-09-12T23:33:04.077Z,101186.41
2023-09-12T23:38:56.919Z,101205.59
2023-09-12T23:41:24.680Z,101198.73
2023-09-12T23:43:52.248Z,101198.05
2023-09-12T23:46:20.720Z,101194.62
2023-09-12T23:48:48.678Z,101193.41
2023-09-12T23:51:16.967Z,101189.98
2023-09-12T23:53:45.651Z,101189.14
2023-09-12T23:56:14.241Z,101189.84
2023-09-12T23:58:41.792Z,101190.03
